Time;durP1;ratioP1;P1;durP2;ratioP2;P2;SDS_P1;SDS_P2;PMS_P1;PMS_P2;Temp;Humidity;BMP_temperature;BMP_pressure;BME280_temperature;BME280_humidity;BME280_pressure;Samples;Min_cycle;Max_cycle;Signal;HPM_P1;HPM_P2
2023/04/17 00:01:35;;;;;;;2.13;1.80;;;10.00;99.90;9.90;101009.00;;;;5009783;27;87699;-66
2023/04/17 00:04:02;;;;;;;1.87;1.67;;;10.00;99.90;9.90;101007.00;;;;5008348;27;88167;-65
2023/04/17 00:06:28;;;;;;;1.53;1.20;;;10.00;99.90;9.90;101005.00;;;;5008770;27;93232;-65
2023/04/17 00:08:54;;;;;;;1.70;1.43;;;10.00;99.90;9.90;101006.00;;;;5007907;27;87408;-65
2023/04/17 00:11:20;;;;;;;1.30;1.17;;;9.90;99.90;9.90;101006.00;;;;5008528;27;87864;-65
2023/04/17 00:13:46;;;;;;;1.70;1.57;;;9.90;99.90;9.90;101008.00;;;;5007391;27;108010;-66
2023/04/17 00:16:12;;;;;;;2.00;1.27;;;9.90;99.90;9.90;101004.00;;;;5007638;27;113728;-66
2023/04/17 00:18:39;;;;;;;2.50;1.73;;;9.90;99.90;9.80;100997.00;;;;5008115;27;88516;-66
2023/04/17 00:21:05;;;;;;;1.17;1.00;;;9.90;99.90;9.80;100994.00;;;;4992838;27;87911;-66
2023/04/17 00:23:31;;;;;;;1.90;1.40;;;9.90;99.90;9.80;100994.00;;;;5006405;27;113691;-66
2023/04/17 00:25:57;;;;;;;1.87;1.23;;;9.90;99.90;9.80;101000.00;;;;5007429;27;102898;-67
2023/04/17 00:28:23;;;;;;;1.67;1.20;;;9.80;99.90;9.80;101004.00;;;;5007140;27;108289;-67
2023/04/17 00:30:48;;;;;;;1.43;1.07;;;9.80;99.90;9.80;100998.00;;;;5009120;27;109793;-67
2023/04/17 00:33:14;;;;;;;1.90;1.63;;;9.80;99.90;9.70;100990.00;;;;5009900;27;115706;-65
2023/04/17 00:35:40;;;;;;;1.87;1.10;;;9.80;99.90;9.70;101002.00;;;;5007807;27;88010;-65
2023/04/17 00:38:07;;;;;;;1.57;1.40;;;9.80;99.90;9.70;100995.00;;;;5005982;27;110878;-65
2023/04/17 00:40:34;;;;;;;2.13;1.33;;;9.80;99.90;9.70;100998.00;;;;5008407;27;88862;-65
2023/04/17 00:43:05;;;;;;;1.80;1.37;;;9.80;99.90;9.70;100991.00;;;;5008635;27;87799;-65
2023/04/17 00:45:31;;;;;;;1.33;1.03;;;9.80;99.90;9.70;100995.00;;;;5007397;27;92140;-65
2023/04/17 00:47:59;;;;;;;2.23;1.03;;;9.80;99.90;9.70;101005.00;;;;5006924;27;110542;-65
2023/04/17 00:50:27;;;;;;;1.47;1.27;;;9.80;99.90;9.70;101001.00;;;;4996235;27;87841;-65
2023/04/17 00:52:54;;;;;;;2.57;1.47;;;9.80;99.90;9.70;100998.00;;;;4989813;27;88024;-67
2023/04/17 00:55:19;;;;;;;2.03;1.30;;;9.80;99.90;9.70;100999.00;;;;5006933;27;89930;-66
2023/04/17 00:57:48;;;;;;;1.50;1.33;;;9.80;99.90;9.70;100998.00;;;;5007370;27;110202;-66
2023/04/17 01:00:15;;;;;;;1.43;1.33;;;9.80;99.90;9.70;100993.00;;;;5006825;27;88964;-66
2023/04/17 01:02:41;;;;;;;1.50;1.40;;;9.80;99.90;9.70;100996.00;;;;5008144;27;88599;-66
2023/04/17 01:05:08;;;;;;;0.97;0.93;;;9.80;99.90;9.70;100990.00;;;;5007224;27;88776;-66
2023/04/17 01:07:33;;;;;;;2.33;1.47;;;9.80;99.90;9.70;100998.00;;;;5008420;27;87796;-66
2023/04/17 01:09:59;;;;;;;1.53;1.10;;;9.80;99.90;9.70;100991.00;;;;5005526;27;108245;-66
2023/04/17 01:12:25;;;;;;;2.07;1.20;;;9.70;99.90;9.70;100995.00;;;;5007708;27;88579;-66
2023/04/17 01:14:53;;;;;;;2.10;1.47;;;9.80;99.90;9.70;100996.00;;;;5002273;27;88073;-66
2023/04/17 01:17:20;;;;;;;3.30;1.80;;;9.70;99.90;9.70;101001.00;;;;4988476;27;88123;-66
2023/04/17 01:19:47;;;;;;;1.83;1.23;;;9.80;99.90;9.70;100992.00;;;;5006560;27;87867;-65
2023/04/17 01:22:15;;;;;;;1.73;1.00;;;9.70;99.90;9.60;100996.00;;;;5006959;27;102516;-65
2023/04/17 01:24:41;;;;;;;1.43;1.20;;;9.70;99.90;9.60;100996.00;;;;5004986;27;88241;-65
2023/04/17 01:27:07;;;;;;;1.47;1.30;;;9.70;99.90;9.60;100999.00;;;;4993015;27;88501;-66
2023/04/17 01:29:34;;;;;;;1.50;1.17;;;9.70;99.90;9.60;100999.00;;;;5004392;27;108348;-65
2023/04/17 01:32:00;;;;;;;1.73;1.63;;;9.70;99.90;9.60;100991.00;;;;5006376;27;88027;-65
2023/04/17 01:34:26;;;;;;;1.30;0.83;;;9.70;99.90;9.60;100991.00;;;;5007990;27;90200;-65
2023/04/17 01:36:51;;;;;;;1.97;1.23;;;9.60;99.90;9.60;100989.00;;;;5008720;27;90177;-65
2023/04/17 01:39:23;;;;;;;1.93;1.00;;;9.60;99.90;9.50;100991.00;;;;5002752;27;109121;-66
2023/04/17 01:41:50;;;;;;;1.10;1.00;;;9.60;99.90;9.50;100990.00;;;;5007977;27;88099;-65
2023/04/17 01:44:16;;;;;;;1.67;1.03;;;9.70;99.90;9.50;100989.00;;;;5004899;27;88879;-65
2023/04/17 01:46:42;;;;;;;2.23;1.10;;;9.60;99.90;9.50;100998.00;;;;5003679;27;87060;-66
2023/04/17 01:49:08;;;;;;;0.90;0.63;;;9.60;99.90;9.50;101002.00;;;;5005251;27;97759;-66
2023/04/17 01:51:34;;;;;;;1.43;0.93;;;9.60;99.90;9.50;100994.00;;;;5008169;27;103400;-65
2023/04/17 01:53:59;;;;;;;1.03;0.63;;;9.60;99.90;9.50;101002.00;;;;5003299;27;117220;-66
2023/04/17 01:56:26;;;;;;;3.73;0.63;;;9.60;99.90;9.50;100991.00;;;;5005374;27;106832;-66
2023/04/17 01:58:52;;;;;;;2.00;0.93;;;9.60;99.90;9.60;100988.00;;;;5005147;27;88110;-66
2023/04/17 02:01:17;;;;;;;0.63;0.63;;;9.60;99.90;9.60;100994.00;;;;5005046;27;104011;-66
2023/04/17 02:03:43;;;;;;;0.60;0.47;;;9.60;99.90;9.60;100994.00;;;;5005758;27;118516;-66
2023/04/17 02:06:11;;;;;;;1.03;0.57;;;9.70;99.90;9.60;100997.00;;;;5004569;27;110956;-66
2023/04/17 02:08:37;;;;;;;0.53;0.40;;;9.60;99.90;9.60;100991.00;;;;4998143;27;87890;-66
2023/04/17 02:11:03;;;;;;;0.63;0.60;;;9.60;99.90;9.60;101004.00;;;;5006173;27;117778;-66
2023/04/17 02:13:34;;;;;;;0.63;0.63;;;9.70;99.90;9.60;100993.00;;;;5005871;27;88125;-65
2023/04/17 02:16:03;;;;;;;1.10;0.90;;;9.70;99.90;9.60;100999.00;;;;5003652;27;97850;-65
2023/04/17 02:18:29;;;;;;;0.97;0.70;;;9.70;99.90;9.60;101000.00;;;;5006141;27;93371;-68
2023/04/17 02:20:54;;;;;;;0.73;0.73;;;9.70;99.90;9.60;101004.00;;;;5008066;27;119423;-68
2023/04/17 02:23:20;;;;;;;0.57;0.40;;;9.70;99.90;9.60;101006.00;;;;5004672;27;118673;-68
2023/04/17 02:25:46;;;;;;;0.40;0.40;;;9.70;99.90;9.60;101003.00;;;;5011410;27;87932;-67
2023/04/17 02:28:11;;;;;;;0.80;0.80;;;9.70;99.90;9.60;101005.00;;;;5013531;27;109504;-67
2023/04/17 02:30:37;;;;;;;1.60;0.90;;;9.70;99.90;9.60;101013.00;;;;5011374;27;118475;-67
2023/04/17 02:33:03;;;;;;;1.23;1.00;;;9.70;99.90;9.60;101004.00;;;;5012846;27;88447;-67
2023/04/17 02:35:33;;;;;;;0.97;0.73;;;9.70;99.90;9.60;101002.00;;;;5009709;27;110599;-68
2023/04/17 02:37:58;;;;;;;1.00;0.90;;;9.60;99.90;9.50;101010.00;;;;5009036;27;87770;-67
2023/04/17 02:40:24;;;;;;;2.00;1.00;;;9.60;99.90;9.50;101011.00;;;;5010337;27;117100;-68
2023/04/17 02:42:49;;;;;;;2.43;1.10;;;9.60;99.90;9.50;101001.00;;;;5011676;27;110676;-67
2023/04/17 02:45:15;;;;;;;1.67;1.00;;;9.60;99.90;9.50;100997.00;;;;5007047;27;108550;-67
2023/04/17 02:47:42;;;;;;;2.77;1.50;;;9.60;99.90;9.40;101001.00;;;;5010573;27;106887;-66
2023/04/17 02:50:08;;;;;;;1.73;1.17;;;9.50;99.90;9.40;101002.00;;;;5010255;27;118185;-66
2023/04/17 02:52:34;;;;;;;1.30;1.20;;;9.50;99.90;9.40;101006.00;;;;5010179;27;88062;-68
2023/04/17 02:54:59;;;;;;;2.40;1.60;;;9.50;99.90;9.40;101010.00;;;;5007817;27;110943;-67
2023/04/17 02:57:25;;;;;;;2.50;1.77;;;9.40;99.90;9.30;101009.00;;;;5009325;27;88242;-67
2023/04/17 02:59:51;;;;;;;1.87;1.30;;;9.40;99.90;9.30;101009.00;;;;5006155;27;115904;-66
2023/04/17 03:02:20;;;;;;;1.70;1.03;;;9.40;99.90;9.30;101004.00;;;;5009052;27;117571;-67
2023/04/17 03:04:50;;;;;;;1.03;0.90;;;9.50;99.90;9.30;100999.00;;;;5005082;27;87869;-67
2023/04/17 03:07:22;;;;;;;4.37;1.67;;;9.40;99.90;9.30;101007.00;;;;5007443;27;89532;-67
2023/04/17 03:09:48;;;;;;;2.10;1.50;;;9.40;99.90;9.30;101007.00;;;;5009453;27;88787;-67
2023/04/17 03:12:15;;;;;;;1.87;1.50;;;9.40;99.90;9.30;101009.00;;;;5008032;27;102894;-67
2023/04/17 03:14:42;;;;;;;2.27;1.33;;;9.40;99.90;9.30;101014.00;;;;5010133;27;87947;-67
2023/04/17 03:17:09;;;;;;;1.23;1.03;;;9.40;99.90;9.30;101013.00;;;;5009709;27;87874;-66
2023/04/17 03:19:34;;;;;;;3.40;1.83;;;9.40;99.90;9.30;101017.00;;;;5008836;27;88087;-65
2023/04/17 03:22:01;;;;;;;4.90;1.77;;;9.30;99.90;9.20;101018.00;;;;5011605;27;101743;-67
2023/04/17 03:24:27;;;;;;;2.30;1.10;;;9.30;99.90;9.20;101013.00;;;;5010838;27;87064;-67
2023/04/17 03:26:52;;;;;;;2.37;1.60;;;9.30;99.90;9.20;101015.00;;;;5009764;27;99756;-67
2023/04/17 03:29:18;;;;;;;0.93;0.93;;;9.30;99.90;9.20;101021.00;;;;5007179;27;92523;-66
2023/04/17 03:31:44;;;;;;;1.67;1.07;;;9.30;99.90;9.20;101020.00;;;;5009234;27;118040;-67
2023/04/17 03:34:09;;;;;;;1.43;1.13;;;9.30;99.90;9.20;101021.00;;;;5008504;27;87693;-66
2023/04/17 03:36:39;;;;;;;1.03;0.90;;;9.30;99.90;9.20;101026.00;;;;5008958;27;87895;-66
2023/04/17 03:39:05;;;;;;;1.33;1.23;;;9.30;99.90;9.20;101028.00;;;;5006091;27;117354;-67
2023/04/17 03:41:31;;;;;;;1.50;1.20;;;9.30;99.90;9.20;101033.00;;;;5007922;27;88369;-66
2023/04/17 03:43:56;;;;;;;2.00;1.33;;;9.30;99.90;9.20;101024.00;;;;5006752;27;110856;-67
2023/04/17 03:46:22;;;;;;;1.80;1.20;;;9.30;99.90;9.20;101023.00;;;;5005670;27;87985;-67
2023/04/17 03:48:48;;;;;;;1.33;1.23;;;9.30;99.90;9.20;101032.00;;;;5010779;27;116372;-66
2023/04/17 03:51:15;;;;;;;0.93;0.90;;;9.30;99.90;9.20;101043.00;;;;5009073;27;96538;-65
2023/04/17 03:53:41;;;;;;;0.80;0.80;;;9.30;99.90;9.20;101031.00;;;;5006673;27;87697;-66
2023/04/17 03:56:06;;;;;;;0.90;0.60;;;9.30;99.90;9.20;101030.00;;;;5006179;27;108801;-65
2023/04/17 03:58:32;;;;;;;2.07;1.23;;;9.30;99.90;9.20;101038.00;;;;5005960;27;117438;-66
2023/04/17 04:01:00;;;;;;;0.77;0.77;;;9.40;99.90;9.20;101045.00;;;;5007063;27;117841;-67
2023/04/17 04:03:27;;;;;;;1.77;1.20;;;9.30;99.90;9.20;101044.00;;;;5021634;27;87931;-65
2023/04/17 04:05:53;;;;;;;0.90;0.90;;;9.30;99.90;9.20;101040.00;;;;5005175;27;97225;-67
2023/04/17 04:08:19;;;;;;;1.07;1.00;;;9.30;99.90;9.20;101060.00;;;;5007325;27;89153;-67
2023/04/17 04:10:45;;;;;;;0.80;0.80;;;9.30;99.90;9.20;101053.00;;;;5007950;27;87952;-66
2023/04/17 04:13:11;;;;;;;1.07;1.00;;;9.40;99.90;9.20;101056.00;;;;5008458;27;87293;-66
2023/04/17 04:15:37;;;;;;;1.43;1.07;;;9.30;99.90;9.10;101058.00;;;;5012248;27;97932;-67
2023/04/17 04:18:03;;;;;;;0.63;0.60;;;9.20;99.90;9.10;101056.00;;;;5003386;27;118415;-66
2023/04/17 04:20:29;;;;;;;1.07;0.93;;;9.20;99.90;9.10;101053.00;;;;5007860;27;105233;-66
2023/04/17 04:22:56;;;;;;;0.63;0.63;;;9.20;99.90;9.10;101055.00;;;;5020105;27;109504;-67
2023/04/17 04:25:22;;;;;;;1.10;0.87;;;9.20;99.90;9.10;101057.00;;;;5017232;27;88274;-65
2023/04/17 04:27:48;;;;;;;1.20;1.03;;;9.20;99.90;9.10;101064.00;;;;5004873;27;103504;-66
2023/04/17 04:30:18;;;;;;;1.67;0.90;;;9.20;99.90;9.10;101063.00;;;;5006775;27;88042;-65
2023/04/17 04:32:44;;;;;;;0.73;0.70;;;9.20;99.90;9.10;101069.00;;;;5006602;27;88092;-64
2023/04/17 04:35:14;;;;;;;0.80;0.80;;;9.20;99.90;9.10;101072.00;;;;5008583;27;88135;-64
2023/04/17 04:37:41;;;;;;;1.77;1.27;;;9.20;99.90;9.10;101075.00;;;;5004914;27;87137;-65
2023/04/17 04:40:13;;;;;;;1.03;0.93;;;9.20;99.90;9.10;101068.00;;;;5009299;27;88141;-65
2023/04/17 04:42:48;;;;;;;1.90;1.20;;;9.20;99.90;9.10;101075.00;;;;5002312;27;88017;-65
2023/04/17 04:45:14;;;;;;;1.20;1.03;;;9.20;99.90;9.10;101075.00;;;;5002289;27;89051;-64
2023/04/17 04:47:41;;;;;;;1.07;0.93;;;9.10;99.90;9.10;101080.00;;;;5001206;27;112378;-65
2023/04/17 04:50:07;;;;;;;1.50;1.40;;;9.10;99.90;9.10;101083.00;;;;5002843;27;106272;-65
2023/04/17 04:52:34;;;;;;;1.00;1.00;;;9.10;99.90;9.10;101084.00;;;;4999405;27;87933;-64
2023/04/17 04:55:00;;;;;;;2.00;1.43;;;9.20;99.90;9.10;101080.00;;;;5004910;27;87604;-65
2023/04/17 04:57:26;;;;;;;1.77;1.27;;;9.20;99.90;9.10;101077.00;;;;5005256;27;88203;-64
2023/04/17 04:59:52;;;;;;;3.73;1.93;;;9.20;99.90;9.10;101090.00;;;;5003989;27;118649;-64
2023/04/17 05:02:18;;;;;;;2.10;1.63;;;9.20;99.90;9.10;101090.00;;;;5006032;27;88446;-64
2023/04/17 05:04:43;;;;;;;1.67;1.57;;;9.20;99.90;9.10;101085.00;;;;5004163;27;87842;-63
2023/04/17 05:07:09;;;;;;;1.63;1.37;;;9.20;99.90;9.10;101083.00;;;;5004240;27;95049;-66
2023/04/17 05:09:35;;;;;;;2.10;1.53;;;9.50;99.90;9.10;101095.00;;;;4996432;27;116344;-64
2023/04/17 05:12:01;;;;;;;2.07;1.53;;;9.20;99.90;9.10;101091.00;;;;5006517;27;87887;-65
2023/04/17 05:14:27;;;;;;;0.83;0.83;;;9.20;99.90;9.10;101100.00;;;;5003460;27;109242;-64
2023/04/17 05:16:54;;;;;;;1.13;1.03;;;9.10;99.90;9.00;101091.00;;;;5005632;27;106957;-64
2023/04/17 05:19:20;;;;;;;1.87;1.40;;;9.20;99.90;9.10;101095.00;;;;5005953;27;88883;-64
2023/04/17 05:21:46;;;;;;;1.90;1.37;;;9.10;99.90;9.10;101108.00;;;;5006643;27;87858;-65
2023/04/17 05:24:11;;;;;;;2.50;1.17;;;9.20;99.90;9.10;101107.00;;;;5006947;27;88157;-64
2023/04/17 05:26:37;;;;;;;5.20;1.50;;;9.10;99.90;9.10;101110.00;;;;5003658;27;117735;-63
2023/04/17 05:29:03;;;;;;;1.53;1.43;;;9.10;99.90;9.10;101120.00;;;;5006625;27;108724;-64
2023/04/17 05:31:29;;;;;;;1.17;0.87;;;9.20;99.90;9.10;101118.00;;;;5008091;27;88001;-64
2023/04/17 05:33:54;;;;;;;1.07;0.97;;;9.20;99.90;9.10;101123.00;;;;5010513;27;88840;-65
2023/04/17 05:36:21;;;;;;;1.43;1.33;;;9.20;99.90;9.10;101119.00;;;;5008724;27;117271;-64
2023/04/17 05:38:47;;;;;;;0.80;0.73;;;9.20;99.90;9.10;101122.00;;;;5006291;27;88031;-64
2023/04/17 05:41:12;;;;;;;1.77;1.13;;;9.20;99.90;9.10;101118.00;;;;5003461;27;88786;-65
2023/04/17 05:43:38;;;;;;;0.63;0.63;;;9.20;99.90;9.10;101133.00;;;;5006160;27;94331;-65
2023/04/17 05:46:04;;;;;;;1.23;1.03;;;9.20;99.90;9.10;101128.00;;;;5007986;27;87988;-64
2023/04/17 05:48:30;;;;;;;1.17;1.03;;;9.20;99.90;9.10;101127.00;;;;5007157;27;89137;-65
2023/04/17 05:50:56;;;;;;;1.80;1.57;;;9.20;99.90;9.10;101123.00;;;;5007259;27;87149;-65
2023/04/17 05:53:22;;;;;;;1.10;1.00;;;9.10;99.90;9.10;101133.00;;;;5004443;27;108476;-66
2023/04/17 05:55:47;;;;;;;2.27;1.40;;;9.20;99.90;9.10;101141.00;;;;5005356;27;105061;-65
2023/04/17 05:58:13;;;;;;;0.90;0.87;;;9.20;99.90;9.20;101148.00;;;;5008203;27;90839;-65
2023/04/17 06:00:41;;;;;;;0.93;0.73;;;9.20;99.90;9.20;101136.00;;;;5006406;27;110635;-66
2023/04/17 06:03:06;;;;;;;2.33;1.23;;;9.30;99.90;9.30;101134.00;;;;5004709;27;87857;-67
2023/04/17 06:05:32;;;;;;;2.50;1.73;;;9.30;99.90;9.40;101136.00;;;;5004273;27;115822;-65
2023/04/17 06:07:58;;;;;;;2.13;1.30;;;9.50;99.90;9.50;101136.00;;;;5006844;27;116686;-68
2023/04/17 06:10:24;;;;;;;2.20;1.33;;;9.50;99.90;9.50;101141.00;;;;5017667;27;97285;-66
2023/04/17 06:12:50;;;;;;;1.67;1.17;;;9.60;99.90;9.60;101140.00;;;;5002146;27;107590;-65
2023/04/17 06:15:15;;;;;;;1.27;1.00;;;9.60;99.90;9.60;101147.00;;;;5005066;27;117244;-65
2023/04/17 06:17:41;;;;;;;1.67;1.17;;;9.70;99.90;9.70;101143.00;;;;5006193;27;89234;-67
2023/04/17 06:20:09;;;;;;;2.03;1.57;;;9.70;99.90;9.70;101146.00;;;;5003982;27;87795;-67
2023/04/17 06:22:39;;;;;;;1.90;1.37;;;9.80;99.90;9.80;101146.00;;;;5003313;27;88878;-66
2023/04/17 06:25:06;;;;;;;1.43;1.33;;;9.80;99.90;9.80;101151.00;;;;5005606;27;88744;-67
2023/04/17 06:27:32;;;;;;;2.27;1.60;;;9.90;99.90;9.80;101156.00;;;;4999458;27;88639;-65
2023/04/17 06:29:58;;;;;;;1.77;1.67;;;9.80;99.90;9.80;101155.00;;;;5003433;27;87980;-65
2023/04/17 06:32:23;;;;;;;2.50;1.37;;;9.90;99.90;9.90;101157.00;;;;5005120;27;101358;-66
2023/04/17 06:34:49;;;;;;;2.30;1.47;;;9.90;99.90;9.90;101163.00;;;;5008016;27;103607;-66
2023/04/17 06:37:15;;;;;;;1.67;1.40;;;9.90;99.90;9.90;101157.00;;;;5006374;27;89045;-65
2023/04/17 06:39:41;;;;;;;1.57;1.47;;;9.90;99.90;9.90;101158.00;;;;5005233;27;87300;-65
2023/04/17 06:42:06;;;;;;;2.97;1.20;;;10.00;99.90;9.90;101161.00;;;;5005861;27;109274;-64
2023/04/17 06:44:32;;;;;;;1.80;0.93;;;10.00;99.90;9.90;101165.00;;;;5005523;27;119249;-64
2023/04/17 06:47:02;;;;;;;1.50;1.20;;;10.00;99.90;9.90;101165.00;;;;5005198;27;117383;-64
2023/04/17 06:49:30;;;;;;;2.30;0.90;;;10.00;99.90;9.90;101171.00;;;;5005590;27;88132;-64
2023/04/17 06:51:57;;;;;;;1.97;1.67;;;10.00;99.90;9.90;101162.00;;;;5006859;27;107096;-65
2023/04/17 06:54:24;;;;;;;2.13;1.87;;;10.00;99.90;9.90;101181.00;;;;5006574;27;111806;-63
2023/04/17 06:56:50;;;;;;;6.73;2.70;;;10.00;99.90;9.90;101175.00;;;;5005642;27;88515;-63
2023/04/17 06:59:16;;;;;;;2.30;1.70;;;10.00;99.90;9.90;101178.00;;;;5005603;27;88142;-64
2023/04/17 07:01:42;;;;;;;3.33;1.67;;;9.90;99.90;9.90;101183.00;;;;5007153;27;87856;-64
2023/04/17 07:04:08;;;;;;;2.10;1.77;;;9.90;99.90;9.90;101188.00;;;;5002921;27;116919;-63
2023/04/17 07:06:35;;;;;;;4.13;1.50;;;10.00;99.90;10.00;101188.00;;;;5003781;27;87926;-65
2023/04/17 07:09:01;;;;;;;2.00;1.77;;;10.00;99.90;10.10;101197.00;;;;5007017;27;87899;-65
2023/04/17 07:11:27;;;;;;;1.67;1.57;;;10.10;99.90;10.30;101190.00;;;;5007812;27;88603;-63
2023/04/17 07:13:53;;;;;;;2.10;1.67;;;10.30;99.90;10.60;101192.00;;;;5004741;27;88914;-65
2023/04/17 07:16:21;;;;;;;1.80;1.47;;;10.50;99.90;10.70;101203.00;;;;5007052;27;117149;-64
2023/04/17 07:18:49;;;;;;;1.57;1.20;;;10.60;99.90;10.70;101206.00;;;;5008309;27;87884;-64
2023/04/17 07:21:14;;;;;;;1.70;1.40;;;10.70;99.90;10.70;101206.00;;;;5012693;27;87845;-65
2023/04/17 07:23:41;;;;;;;1.23;1.13;;;10.80;99.90;10.70;101206.00;;;;5008477;27;89156;-65
2023/04/17 07:26:06;;;;;;;3.07;1.57;;;10.80;99.90;10.70;101210.00;;;;5008403;27;117452;-65
2023/04/17 07:28:33;;;;;;;1.20;1.10;;;10.70;99.90;10.80;101208.00;;;;5008991;27;109914;-64
2023/04/17 07:30:59;;;;;;;1.30;1.20;;;10.80;99.90;10.80;101225.00;;;;5010741;27;87901;-64
2023/04/17 07:33:24;;;;;;;1.50;1.40;;;10.90;99.90;10.90;101232.00;;;;5004764;27;105619;-64
2023/04/17 07:35:50;;;;;;;2.53;1.63;;;10.90;99.90;10.90;101228.00;;;;5008818;27;98028;-65
2023/04/17 07:38:16;;;;;;;1.37;1.10;;;11.00;99.90;11.00;101239.00;;;;5014751;27;88982;-65
2023/04/17 07:40:42;;;;;;;1.93;1.83;;;11.10;99.90;11.10;101238.00;;;;5011091;27;106826;-66
2023/04/17 07:43:08;;;;;;;1.33;1.23;;;11.10;99.90;11.20;101246.00;;;;5006467;27;116211;-63
2023/04/17 07:45:35;;;;;;;1.83;1.33;;;11.20;99.90;11.30;101241.00;;;;5006393;27;115357;-64
2023/04/17 07:48:02;;;;;;;2.30;2.07;;;11.30;99.90;11.40;101249.00;;;;5009324;27;87675;-64
2023/04/17 07:50:29;;;;;;;2.23;1.97;;;11.40;99.90;11.40;101249.00;;;;5010564;27;87851;-66
2023/04/17 07:52:54;;;;;;;2.80;1.77;;;11.50;99.90;11.40;101243.00;;;;5008342;27;88147;-64
2023/04/17 07:55:20;;;;;;;3.10;2.00;;;11.50;99.90;11.30;101254.00;;;;5006722;27;117045;-65
2023/04/17 07:57:50;;;;;;;2.20;2.00;;;11.40;99.90;11.30;101256.00;;;;5010849;27;87785;-63
2023/04/17 08:00:16;;;;;;;8.30;2.23;;;11.40;99.90;11.30;101258.00;;;;5006203;27;88679;-64
2023/04/17 08:02:42;;;;;;;2.17;1.97;;;11.40;99.90;11.40;101268.00;;;;5006879;27;98100;-65
2023/04/17 08:05:09;;;;;;;3.13;2.07;;;11.50;99.90;11.40;101263.00;;;;5006793;27;108799;-64
2023/04/17 08:07:35;;;;;;;4.13;1.97;;;11.50;99.90;11.50;101262.00;;;;5010509;27;87748;-64
2023/04/17 08:10:02;;;;;;;3.27;2.50;;;11.50;99.90;11.50;101251.00;;;;5008560;27;93352;-64
2023/04/17 08:12:27;;;;;;;6.63;2.13;;;11.50;99.90;11.50;101266.00;;;;5009498;27;88151;-65
2023/04/17 08:14:53;;;;;;;2.77;1.93;;;11.60;99.90;11.60;101255.00;;;;5008253;27;116902;-64
2023/04/17 08:17:21;;;;;;;3.73;2.67;;;11.60;99.90;11.80;101268.00;;;;5006512;27;110752;-64
2023/04/17 08:19:56;;;;;;;4.17;2.67;;;11.80;99.90;11.90;101260.00;;;;5002841;27;88984;-65
2023/04/17 08:22:23;;;;;;;4.70;2.60;;;11.90;99.90;12.10;101267.00;;;;5006809;27;88355;-65
2023/04/17 08:24:49;;;;;;;1.83;1.70;;;12.10;99.90;12.10;101269.00;;;;5005858;27;88801;-65
2023/04/17 08:27:15;;;;;;;5.00;3.07;;;12.10;99.90;12.10;101271.00;;;;5007681;27;87828;-65
2023/04/17 08:29:42;;;;;;;4.37;2.63;;;12.20;99.90;12.10;101276.00;;;;5011357;27;87951;-65
2023/04/17 08:32:08;;;;;;;10.27;3.03;;;12.20;99.90;12.20;101269.00;;;;5005351;27;118411;-64
2023/04/17 08:34:35;;;;;;;2.90;2.30;;;12.20;99.90;12.30;101287.00;;;;5008773;27;88499;-65
2023/04/17 08:37:00;;;;;;;3.57;2.37;;;12.30;99.90;12.40;101294.00;;;;5000565;27;88101;-65
2023/04/17 08:39:26;;;;;;;3.37;2.20;;;12.30;99.90;12.40;101287.00;;;;5005488;27;108992;-65
2023/04/17 08:41:59;;;;;;;3.10;1.97;;;12.40;99.90;12.30;101294.00;;;;5008154;27;87277;-66
2023/04/17 08:44:25;;;;;;;2.33;2.13;;;12.40;99.90;12.30;101286.00;;;;5006776;27;88105;-64
2023/04/17 08:46:51;;;;;;;2.10;1.77;;;12.50;99.90;12.30;101293.00;;;;5009908;27;87691;-66
2023/04/17 08:49:17;;;;;;;3.33;2.13;;;12.30;99.90;12.30;101298.00;;;;5020769;27;108704;-66
2023/04/17 08:51:43;;;;;;;5.00;2.33;;;12.30;99.90;12.40;101301.00;;;;5007927;27;116246;-66
2023/04/17 08:54:09;;;;;;;3.70;1.93;;;12.30;99.90;12.50;101291.00;;;;5004737;27;116306;-67
2023/04/17 08:56:35;;;;;;;2.43;2.00;;;12.40;99.90;12.60;101299.00;;;;5007332;27;87865;-66
2023/04/17 08:59:01;;;;;;;2.73;2.27;;;12.50;99.90;12.70;101290.00;;;;5002747;27;87917;-66
2023/04/17 09:01:28;;;;;;;3.20;1.83;;;12.60;99.90;12.80;101293.00;;;;5007080;27;115970;-67
2023/04/17 09:03:55;;;;;;;3.43;2.07;;;12.70;99.90;12.90;101295.00;;;;5007085;27;87723;-66
2023/04/17 09:06:21;;;;;;;5.00;2.43;;;12.80;99.90;13.00;101303.00;;;;5007167;27;87104;-67
2023/04/17 09:09:00;;;;;;;2.93;2.23;;;12.90;99.90;13.10;101304.00;;;;5006644;27;87960;-66
2023/04/17 09:11:26;;;;;;;3.67;2.23;;;13.00;99.90;13.10;101303.00;;;;5008029;27;89064;-67
2023/04/17 09:13:53;;;;;;;2.97;2.47;;;13.00;99.90;13.00;101306.00;;;;5007525;27;97519;-66
2023/04/17 09:16:19;;;;;;;2.30;2.03;;;13.00;99.90;12.90;101305.00;;;;5005457;27;87725;-66
2023/04/17 09:18:46;;;;;;;2.97;2.23;;;12.90;99.90;12.80;101310.00;;;;5009359;27;87636;-68
2023/04/17 09:21:15;;;;;;;3.53;2.67;;;12.80;99.90;12.60;101310.00;;;;5007340;27;88982;-66
2023/04/17 09:23:54;;;;;;;2.87;2.13;;;12.70;99.90;12.50;101309.00;;;;5003336;27;88557;-66
2023/04/17 09:26:23;;;;;;;4.53;2.50;;;12.60;99.90;12.40;101307.00;;;;5006544;27;87957;-67
2023/04/17 09:29:10;;;;;;;3.37;2.17;;;12.50;99.90;12.40;101320.00;;;;5007602;27;87858;-68
2023/04/17 09:31:38;;;;;;;4.90;3.07;;;12.50;99.90;12.60;101315.00;;;;5007819;27;87270;-68
2023/04/17 09:34:03;;;;;;;8.27;3.07;;;12.50;99.90;12.60;101313.00;;;;5008082;27;87849;-66
2023/04/17 09:36:33;;;;;;;5.00;2.57;;;12.60;99.90;12.80;101306.00;;;;4995980;27;87791;-66
2023/04/17 09:39:23;;;;;;;3.97;2.63;;;12.70;99.90;13.00;101314.00;;;;4987507;27;88735;-66
2023/04/17 09:41:49;;;;;;;5.37;2.87;;;12.90;99.90;13.20;101310.00;;;;4966667;28;88798;-67
2023/04/17 09:44:27;;;;;;;4.17;2.77;;;13.10;99.90;13.30;101314.00;;;;4965379;28;88121;-66
2023/04/17 09:46:53;;;;;;;2.73;1.83;;;13.10;99.90;13.40;101312.00;;;;4959997;28;88026;-67
2023/04/17 09:49:32;;;;;;;2.43;1.97;;;13.30;99.90;13.40;101314.00;;;;4961855;28;108611;-66
2023/04/17 09:51:58;;;;;;;2.37;2.17;;;13.30;99.90;13.40;101321.00;;;;4972110;28;88262;-68
2023/04/17 09:54:25;;;;;;;3.63;2.33;;;13.30;99.90;13.20;101323.00;;;;4966457;28;87836;-67
2023/04/17 09:56:54;;;;;;;3.43;2.07;;;13.30;99.90;13.10;101321.00;;;;4980434;28;86912;-67
2023/04/17 09:59:22;;;;;;;2.00;1.80;;;13.20;99.90;13.00;101317.00;;;;4966310;28;87886;-66
2023/04/17 10:01:49;;;;;;;5.03;2.53;;;13.00;99.90;13.00;101322.00;;;;4967673;28;88673;-68
2023/04/17 10:04:15;;;;;;;2.53;2.20;;;13.00;99.90;13.00;101312.00;;;;4966975;28;88826;-66
2023/04/17 10:06:41;;;;;;;2.67;2.13;;;13.00;99.90;13.00;101321.00;;;;4965372;28;111360;-67
2023/04/17 10:09:07;;;;;;;3.43;2.53;;;13.00;99.90;13.00;101321.00;;;;4962234;28;109833;-67
2023/04/17 10:11:39;;;;;;;2.40;2.00;;;13.00;99.90;13.00;101314.00;;;;4964333;28;88912;-68
2023/04/17 10:14:23;;;;;;;5.47;2.97;;;13.00;99.90;13.00;101318.00;;;;4957376;28;103609;-66
2023/04/17 10:16:49;;;;;;;5.17;2.23;;;13.00;99.90;12.90;101330.00;;;;4978375;28;90265;-67
2023/04/17 10:19:29;;;;;;;3.43;2.57;;;12.90;99.90;12.90;101319.00;;;;4964097;28;101219;-68
2023/04/17 10:22:31;;;;;;;2.80;2.60;;;12.90;99.90;12.80;101325.00;;;;4961813;28;87556;-66
2023/04/17 10:25:11;;;;;;;1.97;1.70;;;12.80;99.90;12.70;101319.00;;;;4939362;28;88135;-66
2023/04/17 10:27:40;;;;;;;3.33;2.50;;;12.80;99.90;12.80;101328.00;;;;4961133;28;87613;-67
2023/04/17 10:30:09;;;;;;;4.90;2.10;;;12.70;99.90;12.80;101313.00;;;;4961861;28;88583;-66
2023/04/17 10:32:35;;;;;;;3.40;2.20;;;12.70;99.90;12.80;101326.00;;;;4961591;28;88993;-66
2023/04/17 10:35:16;;;;;;;3.67;2.67;;;12.70;99.90;12.70;101327.00;;;;4963017;28;107153;-66
2023/04/17 10:37:50;;;;;;;4.00;2.73;;;12.70;99.90;12.80;101318.00;;;;4961294;28;87828;-65
2023/04/17 10:40:45;;;;;;;2.63;2.13;;;12.70;99.90;12.90;101321.00;;;;4995558;27;89208;-66
2023/04/17 10:43:16;;;;;;;2.73;2.33;;;12.90;99.90;13.10;101309.00;;;;4964819;27;117956;-68
2023/04/17 10:46:05;;;;;;;2.60;1.80;;;13.00;99.90;13.30;101316.00;;;;4976852;27;89159;-66
2023/04/17 10:48:45;;;;;;;4.03;1.83;;;13.10;99.90;13.40;101315.00;;;;4999421;27;87373;-67
2023/04/17 10:51:22;;;;;;;2.90;2.10;;;13.30;99.90;13.40;101317.00;;;;5003724;27;87782;-66
2023/04/17 10:53:53;;;;;;;3.60;2.30;;;13.30;99.90;13.30;101318.00;;;;5004224;27;90643;-67